VOHS

Rajiv Gandhi International Airport

Hyderabad, India
TAF VOHS 242300Z 2500/2606 13005KT 5000 BR SCT015 SCT100 TEMPO 2500/2502 VRB03KT 3000 BR BKN010 BKN100 BECMG 2503/2505 20007KT 6000 SCT015 SCT025 TEMPO 2511/2517 25015KT 3000 -TSRA SCT010 FEW030CB BKN080 BECMG 2517/2519 13005KT 5000 BR SCT015 SCT100 BECMG 2603/2605 29007KT 5000 HZ SCT015 SCT025
Issued Valid From Valid To
Sep-24 @ 23:00 UTC
(3 hours ago)
Sep-25 @ 00:00 UTC
(2 hours ago)
Sep-26 @ 06:00 UTC
(-1 days ago)
Sep-25 @ 00:00 to Sep-25 @ 03:00
TAF VOHS 242300Z 2500/2606 13005KT 5000 BR SCT015 SCT100
Wind Visibility Clouds Conditions
130° at 5 knots 5,005 meters
  • Scattered at 1,500' AGL
  • Scattered at 10,000' AGL
  • Mist
Temporary Sep-25 @ 00:00 to Sep-25 @ 02:00
TEMPO 2500/2502 VRB03KT 3000 BR BKN010 BKN100
Wind Visibility Clouds Conditions
Variable at 3 knots 2,993 meters
  • Broken at 1,000' AGL
  • Broken at 10,000' AGL
  • Mist
Becoming Sep-25 @ 03:00 to Sep-25 @ 17:00
BECMG 2503/2505 20007KT 6000 SCT015 SCT025
Wind Visibility Clouds Conditions
200° at 7 knots 6,003 meters
  • Scattered at 1,500' AGL
  • Scattered at 2,500' AGL
  • Mist
Temporary Sep-25 @ 11:00 to Sep-25 @ 17:00
TEMPO 2511/2517 25015KT 3000 -TSRA SCT010 FEW030CB BKN080
Wind Visibility Clouds Conditions
250° at 15 knots 2,993 meters
  • Scattered at 1,000' AGL
  • Few at 3,000' AGL
  • Broken at 8,000' AGL
  • Light Thunderstorm
  • Light Rain
Becoming Sep-25 @ 17:00 to Sep-26 @ 03:00
BECMG 2517/2519 13005KT 5000 BR SCT015 SCT100
Wind Visibility Clouds Conditions
130° at 5 knots 5,005 meters
  • Scattered at 1,500' AGL
  • Scattered at 10,000' AGL
  • Mist
Becoming Sep-26 @ 03:00 to Sep-26 @ 06:00
BECMG 2603/2605 29007KT 5000 HZ SCT015 SCT025
Wind Visibility Clouds Conditions
290° at 7 knots 5,005 meters
  • Scattered at 1,500' AGL
  • Scattered at 2,500' AGL
  • Haze
TAF VOHS 242300Z 2500/2606 13005KT 5000 BR SCT015 SCT100 TEMPO 2500/2502 VRB03KT 3000 BR BKN010 BKN100 BECMG 2503/2505 20007KT 6000 SCT015 SCT025 TEMPO 2511/2517 25015KT 3000 -TSRA SCT010 FEW030CB BKN080 BECMG 2517/2519 13005KT 5000 BR SCT015 SCT100 BECMG 2603/2605 29007KT 5000 HZ SCT015 SCT025
Issued Sep-24 @ 23:00 UTC
(3 hours ago)
Valid From Sep-25 @ 00:00 UTC
(2 hours ago)
Valid To Sep-26 @ 06:00 UTC
(-1 days ago)
Sep-25 @ 00:00 - Sep-25 @ 03:00
Wind Visibility
130° at 5 knots 5,005 meters
Clouds
  • Scattered at 1,500' AGL
  • Scattered at 10,000' AGL
Conditions
  • Mist
Temporary Sep-25 @ 00:00 - Sep-25 @ 02:00
Wind Visibility
Variable at 3 knots 2,993 meters
Clouds
  • Broken at 1,000' AGL
  • Broken at 10,000' AGL
Conditions
  • Mist
Becoming Sep-25 @ 03:00 - Sep-25 @ 17:00
Wind Visibility
200° at 7 knots 6,003 meters
Clouds
  • Scattered at 1,500' AGL
  • Scattered at 2,500' AGL
Conditions
  • Mist
Temporary Sep-25 @ 11:00 - Sep-25 @ 17:00
Wind Visibility
250° at 15 knots 2,993 meters
Clouds
  • Scattered at 1,000' AGL
  • Few at 3,000' AGL
  • Broken at 8,000' AGL
Conditions
  • Light Thunderstorm
  • Light Rain
Becoming Sep-25 @ 17:00 - Sep-26 @ 03:00
Wind Visibility
130° at 5 knots 5,005 meters
Clouds
  • Scattered at 1,500' AGL
  • Scattered at 10,000' AGL
Conditions
  • Mist
Becoming Sep-26 @ 03:00 - Sep-26 @ 06:00
Wind Visibility
290° at 7 knots 5,005 meters
Clouds
  • Scattered at 1,500' AGL
  • Scattered at 2,500' AGL
Conditions
  • Haze